METAR Data
IDs: Format: Raw Decoded Include TAF

Data at: 0902 UTC 13 Aug 2022

EGLC 130850Z AUTO 07005KT 350V110 9999 NCD 25/15 Q1015